TimeCST,TemperatureF,Dew PointF,Humidity,Sea Level PressureIn,VisibilityMPH,Wind Direction,Wind SpeedMPH,Gust SpeedMPH,PrecipitationIn,Events,Conditions,WindDirDegrees,DateUTC
12:00 AM,71,70,96,30.01,3,North,5.8,,,Rain,Light Rain,0,2014-01-04 06:00:00
3:00 AM,71,70,95,29.96,6,NNW,8.1,,,Rain,Light Rain,330,2014-01-04 09:00:00
5:00 AM,69.8,69.8,100,29.95,5.0,NW,6.9,-,N/A,,Mostly Cloudy,320,2014-01-04 11:00:00
6:00 AM,70,70,100,29.99,6,NW,8.1,,,Rain,Light Rain,320,2014-01-04 12:00:00
6:00 AM,69.8,69.8,100,29.98,6.2,NW,8.1,-,N/A,Rain,Light Rain,320,2014-01-04 12:00:00
7:00 AM,69.8,69.8,100,30.01,4.3,NW,9.2,-,N/A,Rain,Light Rain,320,2014-01-04 13:00:00
8:00 AM,69.8,69.8,100,30.04,4.3,NW,8.1,-,N/A,Rain,Light Rain,320,2014-01-04 14:00:00
8:49 AM,69.8,69.8,100,30.04,5.6,NW,6.9,-,N/A,Rain,Light Rain,320,2014-01-04 14:49:00
9:00 AM,71,71,99,30.04,6,NNW,8.1,,,Rain,Light Rain,340,2014-01-04 15:00:00
9:00 AM,71.6,71.6,100,30.04,5.6,NNW,8.1,-,N/A,,Mostly Cloudy,340,2014-01-04 15:00:00
9:42 AM,71.6,71.6,100,30.03,6.2,NNW,8.1,-,N/A,,Mostly Cloudy,340,2014-01-04 15:42:00
10:00 AM,73.4,71.6,94,30.03,6.2,NNW,9.2,-,N/A,,Mostly Cloudy,340,2014-01-04 16:00:00
11:00 AM,75.2,75.2,100,30.02,6.2,NNW,8.1,-,N/A,,Mostly Cloudy,340,2014-01-04 17:00:00
12:00 PM,76,76,100,29.99,12,NNW,10.4,,,,Partly Cloudy,340,2014-01-04 18:00:00
12:00 PM,77.0,75.2,94,29.98,6.2,NNW,10.4,-,N/A,,Mostly Cloudy,340,2014-01-04 18:00:00
1:00 PM,77.0,75.2,94,29.95,6.2,North,10.4,-,N/A,,Mostly Cloudy,360,2014-01-04 19:00:00
2:00 PM,77.0,69.8,78,29.94,6.2,NNW,10.4,-,N/A,,Mostly Cloudy,340,2014-01-04 20:00:00
3:00 PM,77,70,74,29.93,17,NW,8.1,,,,,320,2014-01-04 21:00:00
3:00 PM,77.0,69.8,78,29.92,6.2,NW,8.1,-,N/A,,Mostly Cloudy,320,2014-01-04 21:00:00
4:00 PM,78.8,71.6,78,29.93,6.2,NW,8.1,-,N/A,,Mostly Cloudy,320,2014-01-04 22:00:00
5:00 PM,77.0,71.6,83,29.95,6.2,NW,5.8,-,N/A,,Mostly Cloudy,320,2014-01-04 23:00:00
6:00 PM,76,70,76,29.96,12,North,4.6,,,,Mostly Cloudy,350,2014-01-05 00:00:00
6:00 PM,75.2,69.8,83,29.95,6.2,North,4.6,-,N/A,,Mostly Cloudy,350,2014-01-05 00:00:00
7:00 PM,75.2,69.8,83,29.97,6.2,North,5.8,-,N/A,,Mostly Cloudy,350,2014-01-05 01:00:00
9:00 PM,73,69,83,30.00,12,NNW,4.6,,,,Partly Cloudy,340,2014-01-05 03:00:00